Time;durP1;ratioP1;P1;durP2;ratioP2;P2;SDS_P1;SDS_P2;PMS_P1;PMS_P2;Temp;Humidity;BMP_temperature;BMP_pressure;BME280_temperature;BME280_humidity;BME280_pressure;Samples;Min_cycle;Max_cycle;Signal;HPM_P1;HPM_P2
2023/12/03 00:00:14;;;;;;;6.32;5.28;;;;;;;21.07;21.24;100697.84;4589162;27;20028;-52
2023/12/03 00:02:25;;;;;;;6.28;5.53;;;;;;;21.06;21.12;100708.50;4604234;27;20874;-53
2023/12/03 00:04:36;;;;;;;5.85;5.25;;;;;;;21.07;21.15;100698.69;4605482;27;20031;-55
2023/12/03 00:06:46;;;;;;;6.47;5.30;;;;;;;21.06;21.18;100705.63;4587109;27;20043;-54
2023/12/03 00:08:58;;;;;;;5.88;5.00;;;;;;;21.06;21.25;100704.81;4603292;27;20039;-55
2023/12/03 00:11:08;;;;;;;6.13;5.28;;;;;;;21.06;21.30;100707.69;4589402;27;20051;-55
2023/12/03 00:13:19;;;;;;;6.13;5.18;;;;;;;21.06;21.24;100708.50;4604340;27;20039;-55
2023/12/03 00:15:29;;;;;;;5.55;4.93;;;;;;;21.04;21.49;100708.00;4603793;27;20549;-53
2023/12/03 00:17:40;;;;;;;6.05;5.45;;;;;;;21.04;21.64;100705.16;4604588;27;20101;-53
2023/12/03 00:19:50;;;;;;;5.93;5.05;;;;;;;21.03;21.63;100711.25;4603297;27;20069;-54
2023/12/03 00:22:00;;;;;;;6.35;5.07;;;;;;;21.04;21.72;100707.19;4602638;27;20023;-54
2023/12/03 00:24:11;;;;;;;6.40;5.20;;;;;;;21.04;21.85;100708.00;4605096;27;20032;-54
2023/12/03 00:26:21;;;;;;;6.47;5.40;;;;;;;21.04;21.64;100704.34;4604292;27;20067;-53
2023/12/03 00:28:32;;;;;;;6.05;5.00;;;;;;;21.04;21.86;100710.06;4603838;27;20027;-55
2023/12/03 00:30:42;;;;;;;5.82;4.90;;;;;;;21.04;21.51;100715.81;4604888;27;20483;-51
2023/12/03 00:32:53;;;;;;;6.63;5.30;;;;;;;21.03;22.01;100712.09;4605479;27;21070;-53
2023/12/03 00:35:04;;;;;;;6.88;5.45;;;;;;;21.01;21.56;100717.34;4605848;27;20102;-54
2023/12/03 00:37:14;;;;;;;6.47;5.07;;;;;;;21.01;21.82;100722.28;4589435;27;20131;-51
2023/12/03 00:39:25;;;;;;;5.97;5.30;;;;;;;21.02;21.97;100718.22;4604299;27;20038;-55
2023/12/03 00:41:35;;;;;;;6.57;5.47;;;;;;;21.02;22.19;100712.47;4588635;27;20115;-54
2023/12/03 00:43:45;;;;;;;6.05;5.00;;;;;;;21.01;22.42;100720.22;4604497;27;20039;-54
2023/12/03 00:45:57;;;;;;;6.07;4.78;;;;;;;21.01;22.08;100720.22;4572862;27;20097;-55
2023/12/03 00:48:08;;;;;;;6.07;5.05;;;;;;;20.99;21.94;100711.19;4604888;27;20035;-51
2023/12/03 00:50:18;;;;;;;6.22;4.90;;;;;;;20.99;22.04;100714.06;4603290;27;20043;-55
2023/12/03 00:52:28;;;;;;;6.75;5.55;;;;;;;21.00;22.49;100723.47;4604117;27;20039;-52
2023/12/03 00:54:39;;;;;;;6.55;5.68;;;;;;;21.00;22.52;100715.72;4604259;27;20023;-51
2023/12/03 00:56:49;;;;;;;6.53;5.30;;;;;;;20.99;22.46;100728.41;4604065;27;20044;-51
2023/12/03 00:59:00;;;;;;;6.32;5.20;;;;;;;20.99;22.49;100719.78;4605160;27;20925;-54
2023/12/03 01:01:10;;;;;;;6.57;5.50;;;;;;;20.99;22.35;100728.41;4604233;27;20790;-52
2023/12/03 01:03:20;;;;;;;6.53;5.55;;;;;;;20.99;22.68;100716.91;4603468;27;20032;-51
2023/12/03 01:05:31;;;;;;;6.80;5.78;;;;;;;20.98;22.52;100717.28;4588857;27;20044;-51
2023/12/03 01:07:41;;;;;;;6.90;5.55;;;;;;;20.98;22.68;100718.09;4604848;27;20031;-54
2023/12/03 01:09:51;;;;;;;6.95;5.22;;;;;;;20.97;22.67;100722.19;4603470;27;20044;-54
2023/12/03 01:12:02;;;;;;;6.78;5.30;;;;;;;20.98;22.23;100718.09;4591052;27;20031;-52
2023/12/03 01:14:13;;;;;;;5.97;4.97;;;;;;;20.97;22.34;100722.19;4604508;27;20038;-53
2023/12/03 01:16:23;;;;;;;6.85;5.55;;;;;;;20.97;22.61;100722.19;4604762;27;20043;-55
2023/12/03 01:18:34;;;;;;;7.22;5.72;;;;;;;20.96;22.25;100720.53;4585442;27;20036;-52
2023/12/03 01:20:44;;;;;;;6.82;5.32;;;;;;;20.97;22.65;100719.31;4604132;27;20047;-54
2023/12/03 01:22:55;;;;;;;6.65;5.28;;;;;;;20.97;22.53;100739.41;4603815;27;20050;-55
2023/12/03 01:25:06;;;;;;;7.07;5.65;;;;;;;20.96;22.50;100726.25;4604478;27;20035;-54
2023/12/03 01:27:16;;;;;;;6.43;5.35;;;;;;;20.96;22.51;100719.66;4604117;27;20719;-55
2023/12/03 01:29:26;;;;;;;7.45;5.57;;;;;;;20.97;22.61;100736.53;4603284;27;20107;-51
2023/12/03 01:31:37;;;;;;;6.63;5.47;;;;;;;20.95;22.45;100730.28;4605020;27;20649;-54
2023/12/03 01:33:47;;;;;;;6.15;5.10;;;;;;;20.96;22.22;100734.00;4604305;27;20035;-57
2023/12/03 01:35:57;;;;;;;6.75;5.43;;;;;;;20.96;22.15;100743.47;4603454;27;23534;-50
2023/12/03 01:38:08;;;;;;;6.18;5.22;;;;;;;20.94;22.42;100740.09;4603933;27;20047;-53
2023/12/03 01:40:18;;;;;;;6.90;5.63;;;;;;;20.95;22.38;100750.38;4603586;27;20027;-53
2023/12/03 01:42:29;;;;;;;6.60;5.43;;;;;;;20.92;22.14;100748.22;4603209;27;20027;-52
2023/12/03 01:44:39;;;;;;;6.53;5.40;;;;;;;20.94;22.11;100751.56;4601999;27;20055;-51
2023/12/03 01:46:50;;;;;;;6.38;5.20;;;;;;;20.94;22.28;100750.72;4602784;27;20039;-53
2023/12/03 01:49:01;;;;;;;6.28;5.20;;;;;;;20.94;22.07;100753.59;4603865;27;20119;-51
2023/12/03 01:51:11;;;;;;;6.00;5.07;;;;;;;20.93;22.06;100755.63;4604600;27;20077;-50
2023/12/03 01:53:22;;;;;;;6.38;5.30;;;;;;;20.93;22.34;100758.50;4603345;27;20069;-53
2023/12/03 01:55:33;;;;;;;6.18;5.18;;;;;;;20.92;22.24;100759.72;4603052;27;20039;-53
2023/12/03 01:57:44;;;;;;;6.10;4.97;;;;;;;20.93;22.00;100755.63;4601943;27;20040;-54
2023/12/03 01:59:55;;;;;;;7.10;5.30;;;;;;;20.92;22.21;100764.59;4602985;27;20039;-51
2023/12/03 02:02:05;;;;;;;7.55;5.78;;;;;;;20.92;21.93;100759.72;4603034;27;21118;-52
2023/12/03 02:04:16;;;;;;;6.45;5.47;;;;;;;20.92;22.17;100753.97;4602262;27;20042;-53
2023/12/03 02:06:26;;;;;;;6.07;5.20;;;;;;;20.92;22.28;100765.44;4602973;27;24304;-52
2023/12/03 02:08:37;;;;;;;6.45;5.43;;;;;;;20.92;22.38;100770.34;4603043;27;20039;-54
2023/12/03 02:10:48;;;;;;;6.85;5.65;;;;;;;20.91;22.38;100765.81;4602486;27;20130;-51
2023/12/03 02:12:58;;;;;;;6.57;5.38;;;;;;;20.92;21.89;100776.06;4603704;27;20044;-52
2023/12/03 02:15:09;;;;;;;6.70;5.70;;;;;;;20.91;22.23;100769.53;4601693;27;20111;-51
2023/12/03 02:17:19;;;;;;;6.45;5.10;;;;;;;20.91;21.99;100783.88;4603919;27;20118;-51
2023/12/03 02:19:30;;;;;;;6.63;5.45;;;;;;;20.90;22.28;100779.31;4604573;27;20044;-52
2023/12/03 02:21:40;;;;;;;6.40;5.20;;;;;;;20.89;22.17;100771.91;4602108;27;20028;-53
2023/12/03 02:23:51;;;;;;;6.15;5.07;;;;;;;20.90;22.28;100770.72;4603343;27;20046;-50
2023/12/03 02:26:02;;;;;;;6.13;4.90;;;;;;;20.90;22.27;100772.75;4602712;27;20567;-52
2023/12/03 02:28:12;;;;;;;6.07;4.97;;;;;;;20.89;22.40;100777.66;4602214;27;20039;-53
2023/12/03 02:30:22;;;;;;;6.43;5.10;;;;;;;20.90;21.96;100781.38;4603444;27;20110;-54
2023/12/03 02:32:33;;;;;;;6.25;5.35;;;;;;;20.90;21.86;100785.06;4586234;27;20363;-53
2023/12/03 02:34:43;;;;;;;6.93;5.45;;;;;;;20.89;22.33;100782.56;4602585;27;20038;-54
2023/12/03 02:36:54;;;;;;;6.72;5.40;;;;;;;20.88;22.28;100793.22;4601343;27;20032;-53
2023/12/03 02:39:05;;;;;;;6.45;5.22;;;;;;;20.89;22.25;100783.41;4583804;27;20036;-50
2023/12/03 02:41:15;;;;;;;6.45;5.30;;;;;;;20.89;21.99;100786.25;4602863;27;20047;-53
2023/12/03 02:43:26;;;;;;;6.85;5.57;;;;;;;20.88;22.20;100790.34;4603122;27;20559;-53
2023/12/03 02:45:36;;;;;;;6.30;5.30;;;;;;;20.89;22.30;100785.41;4601913;27;20124;-53
2023/12/03 02:47:46;;;;;;;6.57;5.38;;;;;;;20.87;21.95;100785.78;4601943;27;20039;-53
2023/12/03 02:49:57;;;;;;;6.40;5.40;;;;;;;20.88;22.00;100787.47;4602435;27;20031;-51
2023/12/03 02:52:09;;;;;;;6.38;5.20;;;;;;;20.87;22.47;100797.25;4602715;27;20043;-50
2023/12/03 02:54:19;;;;;;;6.70;5.30;;;;;;;20.88;22.07;100798.09;4602957;27;20523;-51
2023/12/03 02:56:31;;;;;;;6.07;5.30;;;;;;;20.87;22.47;100793.59;4602796;27;20120;-53
2023/12/03 02:58:41;;;;;;;6.40;4.88;;;;;;;20.86;22.16;100801.34;4604914;27;20138;-50
2023/12/03 03:00:52;;;;;;;6.75;5.50;;;;;;;20.87;22.26;100796.44;4605545;27;20371;-52
2023/12/03 03:03:02;;;;;;;6.57;5.43;;;;;;;20.87;22.18;100797.25;4590512;27;20679;-50
2023/12/03 03:05:13;;;;;;;5.82;5.20;;;;;;;20.88;22.47;100798.09;4606331;27;20381;-51
2023/12/03 03:07:23;;;;;;;6.68;5.28;;;;;;;20.88;22.38;100803.84;4587935;27;20036;-54
2023/12/03 03:09:34;;;;;;;6.22;5.05;;;;;;;20.88;22.36;100798.09;4605949;27;21387;-50
2023/12/03 03:11:44;;;;;;;6.00;5.00;;;;;;;20.87;22.19;100807.94;4590216;27;20032;-51
2023/12/03 03:13:54;;;;;;;6.53;5.50;;;;;;;20.86;22.41;100807.09;4591435;27;20036;-54
2023/12/03 03:16:05;;;;;;;6.28;4.80;;;;;;;20.86;22.47;100801.34;4606107;27;20424;-51
2023/12/03 03:18:15;;;;;;;6.40;5.47;;;;;;;20.86;22.26;100804.22;4606625;27;20484;-53
2023/12/03 03:20:26;;;;;;;5.93;5.00;;;;;;;20.86;22.30;100804.22;4605676;27;20038;-50
2023/12/03 03:22:36;;;;;;;6.70;5.45;;;;;;;20.88;22.68;100803.84;4606524;27;20040;-50
2023/12/03 03:24:47;;;;;;;6.82;5.38;;;;;;;20.87;22.21;100808.75;4588722;27;20572;-53
2023/12/03 03:26:57;;;;;;;6.32;5.22;;;;;;;20.87;22.15;100813.66;4587554;27;20506;-51
2023/12/03 03:29:08;;;;;;;6.50;5.55;;;;;;;20.87;22.00;100805.88;4606160;27;20112;-51
2023/12/03 03:31:18;;;;;;;6.68;5.40;;;;;;;20.86;22.45;100804.22;4604866;27;20031;-53
2023/12/03 03:33:29;;;;;;;6.05;5.07;;;;;;;20.86;22.08;100812.81;4589651;27;20036;-53
2023/12/03 03:35:40;;;;;;;5.63;4.97;;;;;;;20.86;22.48;100811.97;4605260;27;20051;-50
2023/12/03 03:37:51;;;;;;;6.97;5.30;;;;;;;20.87;22.33;100810.78;4606902;27;20043;-50
2023/12/03 03:40:01;;;;;;;6.82;5.40;;;;;;;20.86;22.18;100806.25;4605420;27;20479;-51
2023/12/03 03:42:12;;;;;;;6.20;4.95;;;;;;;20.86;22.48;100812.81;4605903;27;20099;-52
2023/12/03 03:44:22;;;;;;;6.57;5.47;;;;;;;20.84;22.34;100815.22;4604482;27;20023;-54
2023/12/03 03:46:32;;;;;;;6.53;5.35;;;;;;;20.86;22.54;100817.72;4605304;27;20092;-54
2023/12/03 03:48:43;;;;;;;6.85;5.40;;;;;;;20.84;22.56;100820.94;4605643;27;20024;-51
2023/12/03 03:50:53;;;;;;;6.50;5.40;;;;;;;20.83;22.50;100825.84;4570914;27;20044;-54
2023/12/03 03:53:04;;;;;;;5.93;5.10;;;;;;;20.84;22.60;100826.69;4605385;27;20483;-53
2023/12/03 03:55:14;;;;;;;5.72;4.72;;;;;;;20.84;22.45;100835.28;4605294;27;20036;-53
2023/12/03 03:57:25;;;;;;;6.60;5.32;;;;;;;20.83;22.41;100837.31;4604706;27;20043;-51
2023/12/03 03:59:35;;;;;;;6.32;5.32;;;;;;;20.82;22.54;100837.69;4604558;27;20034;-53
2023/12/03 04:01:45;;;;;;;6.38;4.82;;;;;;;20.82;22.32;100834.81;4605110;27;20068;-52
2023/12/03 04:03:56;;;;;;;5.85;4.82;;;;;;;20.83;22.28;100836.50;4606023;27;20047;-52
2023/12/03 04:06:07;;;;;;;5.55;4.68;;;;;;;20.83;22.32;100842.25;4605397;27;20036;-51
2023/12/03 04:08:17;;;;;;;6.00;4.68;;;;;;;20.83;22.27;100842.25;4604939;27;20407;-52
2023/12/03 04:10:28;;;;;;;5.47;4.80;;;;;;;20.83;22.33;100847.97;4605616;27;20043;-51
2023/12/03 04:12:38;;;;;;;6.07;4.97;;;;;;;20.82;22.48;100840.56;4586821;27;20040;-53
2023/12/03 04:14:48;;;;;;;6.57;5.50;;;;;;;20.82;22.01;100846.28;4603897;27;20068;-52
2023/12/03 04:16:59;;;;;;;5.75;4.93;;;;;;;20.81;22.13;100853.22;4603644;27;20051;-51
2023/12/03 04:19:11;;;;;;;6.25;5.13;;;;;;;20.81;22.31;100850.38;4605902;27;20055;-52
2023/12/03 04:21:21;;;;;;;7.00;4.97;;;;;;;20.82;22.08;100852.03;4591224;27;20063;-50
2023/12/03 04:23:32;;;;;;;6.35;5.25;;;;;;;20.80;22.42;100843.78;4604534;27;20118;-54
2023/12/03 04:25:42;;;;;;;6.10;5.30;;;;;;;20.80;22.29;100848.72;4605032;27;20406;-54
2023/12/03 04:27:52;;;;;;;6.80;5.30;;;;;;;20.80;22.41;100843.78;4603951;27;20494;-51
2023/12/03 04:30:03;;;;;;;6.40;4.90;;;;;;;20.79;22.38;100847.00;4604130;27;20084;-51
2023/12/03 04:32:14;;;;;;;6.80;5.40;;;;;;;20.80;22.54;100840.91;4604688;27;20039;-53
2023/12/03 04:34:24;;;;;;;6.72;5.22;;;;;;;20.79;22.26;100842.13;4603387;27;20051;-51
2023/12/03 04:36:34;;;;;;;5.85;4.85;;;;;;;20.79;22.43;100841.28;4604299;27;20093;-51
2023/12/03 04:38:45;;;;;;;6.18;5.00;;;;;;;20.80;22.41;100848.72;4604808;27;20040;-50
2023/12/03 04:40:55;;;;;;;6.72;5.38;;;;;;;20.78;22.66;100845.34;4604309;27;20082;-52
2023/12/03 04:43:06;;;;;;;7.28;5.70;;;;;;;20.78;22.88;100851.09;4605648;27;20153;-52
2023/12/03 04:45:16;;;;;;;5.88;5.05;;;;;;;20.79;22.55;100856.47;4604256;27;21098;-52
2023/12/03 04:47:26;;;;;;;6.47;5.22;;;;;;;20.79;22.74;100858.50;4604687;27;20391;-51
2023/12/03 04:49:37;;;;;;;6.63;5.32;;;;;;;20.78;22.74;100854.81;4603955;27;21037;-51
2023/12/03 04:51:47;;;;;;;7.07;5.53;;;;;;;20.78;22.52;100860.53;4604540;27;20032;-53
2023/12/03 04:53:57;;;;;;;7.47;5.72;;;;;;;20.77;22.51;100861.72;4604346;27;20023;-50
2023/12/03 04:56:08;;;;;;;6.90;5.35;;;;;;;20.79;23.10;100869.97;4603901;27;20044;-53
2023/12/03 04:58:19;;;;;;;6.93;5.78;;;;;;;20.78;22.63;100869.16;4605797;27;20070;-54
2023/12/03 05:00:29;;;;;;;7.22;5.60;;;;;;;20.80;23.11;100866.72;4587132;27;20065;-51
2023/12/03 05:02:40;;;;;;;6.53;4.80;;;;;;;20.78;22.86;100872.03;4589184;27;20028;-52
2023/12/03 05:04:50;;;;;;;7.18;5.68;;;;;;;20.81;23.09;100867.56;4588394;27;20036;-54
2023/12/03 05:07:00;;;;;;;6.38;5.15;;;;;;;20.80;22.86;100872.47;4603081;27;20106;-51
2023/12/03 05:09:11;;;;;;;7.00;5.47;;;;;;;20.79;23.01;100872.84;4603610;27;20687;-51
2023/12/03 05:11:21;;;;;;;6.15;5.20;;;;;;;20.80;22.83;100881.06;4603951;27;20871;-50
2023/12/03 05:13:32;;;;;;;7.20;5.88;;;;;;;20.79;23.03;100887.19;4604496;27;20030;-52
2023/12/03 05:15:43;;;;;;;7.97;5.95;;;;;;;20.80;23.25;100877.41;4604040;27;20113;-50
2023/12/03 05:17:53;;;;;;;7.30;5.85;;;;;;;20.80;23.03;100874.53;4604273;27;20443;-51
2023/12/03 05:20:05;;;;;;;6.70;5.57;;;;;;;20.80;23.10;100881.06;4602311;27;20034;-51
2023/12/03 05:22:15;;;;;;;6.93;5.65;;;;;;;20.80;22.86;100883.13;4603527;27;20045;-53
2023/12/03 05:24:26;;;;;;;7.00;5.45;;;;;;;20.79;23.08;100881.44;4604683;27;20042;-53
2023/12/03 05:26:36;;;;;;;6.72;5.50;;;;;;;20.77;22.86;100876.06;4605133;27;20127;-53
2023/12/03 05:28:47;;;;;;;7.60;6.00;;;;;;;20.78;22.89;100885.53;4571754;27;20043;-53
2023/12/03 05:30:57;;;;;;;6.93;5.88;;;;;;;20.77;22.78;100887.53;4603743;27;20035;-51
2023/12/03 05:33:07;;;;;;;7.57;5.93;;;;;;;20.77;23.22;100886.72;4604014;27;20089;-53
2023/12/03 05:35:18;;;;;;;7.25;5.63;;;;;;;20.78;23.25;100888.38;4603563;27;20063;-53
2023/12/03 05:37:29;;;;;;;7.22;5.85;;;;;;;20.78;23.14;100891.25;4588002;27;20122;-53
2023/12/03 05:39:40;;;;;;;7.07;5.80;;;;;;;20.78;23.05;100897.00;4601822;27;20043;-54
2023/12/03 05:41:50;;;;;;;7.53;5.80;;;;;;;20.78;23.29;100908.47;4604803;27;21374;-51
2023/12/03 05:44:00;;;;;;;6.45;5.32;;;;;;;20.77;23.35;100904.75;4602365;27;20078;-51
2023/12/03 05:46:11;;;;;;;7.05;5.53;;;;;;;20.79;23.41;100904.38;4604723;27;20358;-51
2023/12/03 05:48:21;;;;;;;6.95;5.53;;;;;;;20.77;23.25;100909.69;4603430;27;20051;-50
2023/12/03 05:50:32;;;;;;;7.72;6.05;;;;;;;20.78;23.49;100908.47;4602603;27;20035;-51
2023/12/03 05:52:42;;;;;;;7.07;5.72;;;;;;;20.77;23.28;100919.09;4602822;27;20019;-51
2023/12/03 05:54:53;;;;;;;6.93;5.47;;;;;;;20.76;23.52;100914.56;4604110;27;23654;-51
2023/12/03 05:57:04;;;;;;;6.97;5.60;;;;;;;20.78;23.42;100914.22;4603735;27;21124;-51
2023/12/03 05:59:14;;;;;;;6.80;5.43;;;;;;;20.77;23.29;100918.28;4605102;27;20034;-50
2023/12/03 06:01:25;;;;;;;7.72;5.80;;;;;;;20.77;23.16;100919.09;4603575;27;20055;-53
2023/12/03 06:03:35;;;;;;;7.70;5.68;;;;;;;20.76;23.22;100920.31;4603225;27;20031;-50
2023/12/03 06:05:46;;;;;;;7.45;6.00;;;;;;;20.76;23.35;100922.31;4602142;27;20035;-52
2023/12/03 06:07:56;;;;;;;7.20;6.07;;;;;;;20.76;23.15;100922.31;4602071;27;26393;-52
2023/12/03 06:10:08;;;;;;;7.93;6.10;;;;;;;20.76;23.25;100923.16;4603706;27;20067;-52
2023/12/03 06:12:18;;;;;;;7.88;5.85;;;;;;;20.75;23.38;100924.38;4602137;27;20138;-50
2023/12/03 06:14:28;;;;;;;7.15;5.93;;;;;;;20.75;23.71;100927.25;4601578;27;20035;-54
2023/12/03 06:16:39;;;;;;;6.80;5.70;;;;;;;20.75;23.21;100926.41;4601386;27;22443;-51
2023/12/03 06:18:49;;;;;;;7.57;5.65;;;;;;;20.74;23.66;100916.94;4601528;27;21975;-52
2023/12/03 06:21:00;;;;;;;7.68;5.82;;;;;;;20.75;23.63;100927.25;4603556;27;20036;-51
2023/12/03 06:23:11;;;;;;;6.93;5.78;;;;;;;20.75;23.56;100929.28;4602748;27;20113;-53
2023/12/03 06:25:21;;;;;;;6.90;5.63;;;;;;;20.75;23.45;100923.53;4602300;27;20039;-53
2023/12/03 06:27:32;;;;;;;8.15;6.10;;;;;;;20.74;23.34;100924.72;4602379;27;20521;-53
2023/12/03 06:29:42;;;;;;;7.68;6.38;;;;;;;20.74;23.55;100936.19;4602756;27;20102;-52
2023/12/03 06:31:53;;;;;;;7.15;5.80;;;;;;;20.74;23.81;100925.56;4602464;27;20039;-54
2023/12/03 06:34:03;;;;;;;7.38;5.95;;;;;;;20.75;23.45;100926.41;4603035;27;20039;-55
2023/12/03 06:36:14;;;;;;;7.85;5.85;;;;;;;20.75;23.40;100927.25;4602785;27;20072;-53
2023/12/03 06:38:24;;;;;;;6.90;5.72;;;;;;;20.74;23.55;100927.59;4602848;27;20032;-53
2023/12/03 06:40:34;;;;;;;7.15;5.80;;;;;;;20.75;23.65;100937.88;4586273;27;20043;-54
2023/12/03 06:42:45;;;;;;;6.90;5.85;;;;;;;20.75;23.67;100943.63;4600955;27;20044;-53
2023/12/03 06:44:56;;;;;;;7.13;5.47;;;;;;;20.77;23.56;100935.50;4603929;27;20040;-52
2023/12/03 06:47:06;;;;;;;7.15;5.82;;;;;;;20.75;23.74;100937.88;4600506;27;20089;-51
2023/12/03 06:49:16;;;;;;;6.88;5.60;;;;;;;20.74;23.50;100936.19;4603167;27;20028;-55
2023/12/03 06:51:27;;;;;;;7.63;5.78;;;;;;;20.76;23.59;100949.00;4602738;27;20495;-54
2023/12/03 06:53:37;;;;;;;6.35;5.45;;;;;;;20.75;23.79;100944.47;4601915;27;20617;-56
2023/12/03 06:55:48;;;;;;;7.35;5.90;;;;;;;20.75;23.95;100949.34;4602016;27;20039;-53
2023/12/03 06:57:59;;;;;;;7.10;5.80;;;;;;;20.74;23.64;100939.06;4603291;27;20044;-52
2023/12/03 07:00:09;;;;;;;7.25;6.00;;;;;;;20.76;23.68;100945.28;4603312;27;20035;-54
2023/12/03 07:02:20;;;;;;;7.10;6.10;;;;;;;20.75;23.80;100952.22;4601567;27;20340;-54
2023/12/03 07:04:30;;;;;;;6.72;5.68;;;;;;;20.75;23.81;100953.06;4602281;27;20066;-54
2023/12/03 07:06:41;;;;;;;7.05;5.85;;;;;;;20.75;23.12;100960.81;4602938;27;20027;-55
2023/12/03 07:08:51;;;;;;;7.28;5.80;;;;;;;20.76;23.86;100951.88;4602893;27;20048;-55
2023/12/03 07:11:02;;;;;;;6.80;6.03;;;;;;;20.75;23.89;100960.81;4603504;27;20597;-55
2023/12/03 07:13:12;;;;;;;7.88;6.00;;;;;;;20.74;23.82;100959.13;4602722;27;20039;-54
2023/12/03 07:15:22;;;;;;;7.38;5.45;;;;;;;20.74;23.75;100962.00;4586410;27;20411;-53
2023/12/03 07:17:33;;;;;;;7.63;5.90;;;;;;;20.74;23.81;100959.13;4603327;27;20031;-55
2023/12/03 07:19:44;;;;;;;7.22;5.70;;;;;;;20.74;23.89;100965.72;4601705;27;21030;-53
2023/12/03 07:21:54;;;;;;;6.97;5.65;;;;;;;20.73;23.45;100968.94;4603338;27;20084;-55
2023/12/03 07:24:05;;;;;;;6.95;5.90;;;;;;;20.73;23.69;100978.41;4603116;27;20046;-55
2023/12/03 07:26:16;;;;;;;7.20;5.82;;;;;;;20.74;23.70;100970.59;4602759;27;20032;-55
2023/12/03 07:28:26;;;;;;;7.00;5.40;;;;;;;20.74;23.45;100976.34;4602579;27;20048;-55
2023/12/03 07:30:37;;;;;;;7.65;5.70;;;;;;;20.74;23.58;100979.22;4602238;27;20035;-55
2023/12/03 07:32:47;;;;;;;6.53;5.47;;;;;;;20.74;23.89;100982.94;4602157;27;20044;-56
2023/12/03 07:34:57;;;;;;;7.50;5.80;;;;;;;20.74;23.58;100988.66;4602455;27;20027;-55
2023/12/03 07:37:08;;;;;;;7.28;5.82;;;;;;;20.73;23.99;100981.28;4602538;27;20370;-53
2023/12/03 07:39:19;;;;;;;7.25;5.63;;;;;;;20.73;24.08;100980.44;4601742;27;20027;-53
2023/12/03 07:41:30;;;;;;;7.80;5.97;;;;;;;20.73;24.03;100989.03;4602569;27;20078;-52
2023/12/03 07:43:41;;;;;;;6.75;5.72;;;;;;;20.74;23.76;100987.81;4604545;27;20047;-52
2023/12/03 07:45:51;;;;;;;7.93;6.10;;;;;;;20.73;23.65;100987.00;4590647;27;20043;-53
2023/12/03 07:48:02;;;;;;;6.78;5.70;;;;;;;20.74;23.89;100984.94;4589743;27;20043;-53
2023/12/03 07:50:12;;;;;;;5.57;4.80;;;;;;;20.73;23.69;100992.75;4604875;27;20518;-53
2023/12/03 07:52:23;;;;;;;6.35;5.65;;;;;;;20.73;23.68;100991.91;4605677;27;20424;-56
2023/12/03 07:54:33;;;;;;;7.10;5.82;;;;;;;20.73;23.87;100992.75;4603711;27;20032;-54
2023/12/03 07:56:43;;;;;;;6.72;5.45;;;;;;;20.72;23.70;100993.09;4604201;27;20075;-54
2023/12/03 07:58:54;;;;;;;6.60;5.53;;;;;;;20.72;23.82;100995.97;4604316;27;20559;-55
2023/12/03 08:01:05;;;;;;;7.68;5.78;;;;;;;20.73;23.74;100991.91;4590064;27;20500;-55
2023/12/03 08:03:15;;;;;;;6.60;5.50;;;;;;;20.72;23.78;100995.97;4605016;27;20063;-52
2023/12/03 08:05:26;;;;;;;7.60;5.93;;;;;;;20.72;23.98;100995.97;4584758;27;20043;-55
2023/12/03 08:07:36;;;;;;;6.10;5.22;;;;;;;20.73;23.95;100991.91;4605100;27;20070;-53
2023/12/03 08:09:47;;;;;;;6.53;5.28;;;;;;;20.72;23.42;100990.25;4590411;27;20031;-54
2023/12/03 08:11:57;;;;;;;6.95;5.28;;;;;;;20.72;23.71;100998.84;4605228;27;20587;-53
2023/12/03 08:14:07;;;;;;;6.47;5.13;;;;;;;20.73;23.81;100992.75;4605316;27;24346;-53
2023/12/03 08:16:18;;;;;;;8.25;5.80;;;;;;;20.71;23.73;100995.13;4603576;27;20545;-52
2023/12/03 08:18:30;;;;;;;6.15;4.90;;;;;;;20.72;23.86;101001.72;4588835;27;20042;-54
2023/12/03 08:20:40;;;;;;;6.35;4.88;;;;;;;20.73;23.80;100997.63;4604635;27;20024;-54
2023/12/03 08:22:51;;;;;;;6.55;5.68;;;;;;;20.73;23.83;101000.50;4605528;27;20784;-55
2023/12/03 08:25:01;;;;;;;6.10;5.10;;;;;;;20.72;23.66;100996.78;4604217;27;20046;-54
2023/12/03 08:27:11;;;;;;;7.03;5.28;;;;;;;20.72;23.49;101007.44;4605160;27;20062;-54
2023/12/03 08:29:22;;;;;;;5.90;5.30;;;;;;;20.74;23.46;100999.28;4586164;27;20028;-56
2023/12/03 08:31:33;;;;;;;6.07;5.07;;;;;;;20.73;23.83;101000.50;4605174;27;20029;-51
2023/12/03 08:33:44;;;;;;;5.53;4.78;;;;;;;20.74;23.51;101016.50;4603557;27;20043;-53
2023/12/03 08:35:56;;;;;;;6.10;5.00;;;;;;;20.73;23.55;101009.97;4603407;27;20047;-55
2023/12/03 08:38:06;;;;;;;5.63;4.57;;;;;;;20.74;23.35;101011.63;4606328;27;21013;-55
2023/12/03 08:40:17;;;;;;;5.53;4.60;;;;;;;20.75;23.20;101007.56;4604929;27;20028;-54
2023/12/03 08:42:27;;;;;;;6.00;5.13;;;;;;;20.74;23.54;101013.63;4605881;27;20484;-54
2023/12/03 08:44:38;;;;;;;7.15;5.25;;;;;;;20.75;23.61;101015.34;4604954;27;20051;-56
2023/12/03 08:46:48;;;;;;;7.13;5.30;;;;;;;20.76;23.44;101026.44;4603581;27;20027;-56
2023/12/03 08:48:59;;;;;;;6.22;5.00;;;;;;;20.75;23.34;101024.78;4604846;27;20027;-56
2023/12/03 08:51:09;;;;;;;6.38;4.80;;;;;;;20.75;23.42;101033.38;4604489;27;20124;-55
2023/12/03 08:53:20;;;;;;;6.22;5.10;;;;;;;20.75;23.60;101033.38;4603381;27;20031;-54
2023/12/03 08:55:31;;;;;;;5.60;4.82;;;;;;;20.74;23.45;101040.31;4604340;27;20087;-56
2023/12/03 08:57:42;;;;;;;5.78;4.70;;;;;;;20.77;23.28;101038.78;4604022;27;20044;-54
2023/12/03 08:59:55;;;;;;;5.07;4.30;;;;;;;20.75;23.13;101036.25;4603555;27;20530;-55
2023/12/03 09:02:05;;;;;;;5.88;4.70;;;;;;;20.77;23.29;101044.50;4605376;27;20075;-55
2023/12/03 09:04:16;;;;;;;5.75;5.00;;;;;;;20.78;23.21;101046.16;4604687;27;20162;-55
2023/12/03 09:06:26;;;;;;;7.47;6.22;;;;;;;20.77;23.16;101053.94;4602900;27;20036;-55
2023/12/03 09:08:37;;;;;;;6.40;5.20;;;;;;;20.77;23.24;101050.25;4603279;27;20024;-55
2023/12/03 09:10:47;;;;;;;6.28;5.03;;;;;;;20.77;23.29;101055.97;4604579;27;20046;-56
2023/12/03 09:12:58;;;;;;;6.22;5.20;;;;;;;20.78;23.50;101051.91;4603797;27;20036;-56
2023/12/03 09:15:09;;;;;;;6.65;5.47;;;;;;;20.76;23.22;101055.13;4604164;27;20063;-52
2023/12/03 09:17:19;;;;;;;7.30;5.85;;;;;;;20.77;23.44;101067.47;4604901;27;20047;-55
2023/12/03 09:19:30;;;;;;;5.68;4.70;;;;;;;20.77;23.38;101056.78;4604784;27;20039;-55
2023/12/03 09:21:40;;;;;;;5.78;5.07;;;;;;;20.79;23.51;101059.31;4604843;27;20044;-53
2023/12/03 09:23:51;;;;;;;6.55;5.35;;;;;;;20.78;23.38;101069.13;4602701;27;20063;-53
2023/12/03 09:26:01;;;;;;;6.40;5.68;;;;;;;20.78;23.51;101069.13;4603200;27;20396;-55
2023/12/03 09:28:12;;;;;;;2.33;1.70;;;;;;;21.11;37.94;101077.63;4605651;27;20025;-55
2023/12/03 09:30:22;;;;;;;3.95;3.53;;;;;;;21.27;25.66;101069.97;4603011;27;20043;-53
2023/12/03 09:32:33;;;;;;;6.38;5.65;;;;;;;20.96;24.21;101070.59;4589346;27;20040;-55
2023/12/03 09:34:43;;;;;;;6.55;5.50;;;;;;;20.88;23.98;101062.91;4604414;27;20085;-55
2023/12/03 09:36:53;;;;;;;6.93;6.03;;;;;;;20.86;23.21;101068.16;4587162;27;20036;-53
2023/12/03 09:39:04;;;;;;;5.80;5.18;;;;;;;20.84;23.46;101070.56;4600566;27;20945;-54
2023/12/03 09:41:18;;;;;;;7.05;6.25;;;;;;;20.84;23.50;101079.16;4603974;27;20034;-55
2023/12/03 09:43:30;;;;;;;5.80;4.95;;;;;;;20.83;23.77;101078.31;4603986;27;20043;-53
2023/12/03 09:45:43;;;;;;;5.80;5.00;;;;;;;20.83;23.64;101083.25;4603154;27;20122;-55
2023/12/03 09:47:59;;;;;;;5.95;5.30;;;;;;;20.83;23.40;101082.38;4604911;27;20108;-56
2023/12/03 09:50:10;;;;;;;5.53;4.80;;;;;;;20.82;23.42;101077.84;4603013;27;20035;-52
2023/12/03 09:52:24;;;;;;;6.78;6.07;;;;;;;20.81;23.33;101079.88;4603175;27;20487;-56
2023/12/03 09:54:36;;;;;;;6.57;5.55;;;;;;;20.80;23.54;101078.22;4604215;27;20035;-55
2023/12/03 09:56:47;;;;;;;6.80;5.55;;;;;;;20.80;23.27;101083.94;4603453;27;20112;-56
2023/12/03 09:58:58;;;;;;;5.50;4.90;;;;;;;20.80;23.33;101083.94;4602708;27;20172;-54
2023/12/03 10:01:10;;;;;;;5.80;5.05;;;;;;;20.81;23.65;101085.63;4602244;27;20067;-55
2023/12/03 10:03:20;;;;;;;5.75;5.15;;;;;;;20.83;23.32;101088.13;4603419;27;20958;-55
2023/12/03 10:05:31;;;;;;;5.57;4.97;;;;;;;20.81;23.39;101082.75;4601502;27;20123;-54